Nearby METAR Reports

(scroll for additional cities)

KPSP - Palm Springs, California, USA
Distance from station: WNW 7mi, 11km
Updated: Sat, 27-May-2017 7:53am PDT
Clear
Clear
 Wind from SSE
Wind: SSE 3 mph , 6 km/h
Temperature: 72°F , 22°C
Dew Point: 48°F , 9°C
Humidity: 44%
Barometer: 29.92 inHg , 1013.2 hPa
Clouds: Clear
Visibility: 10 miles , 16 km
2017/05/27 14:53 KPSP 271453Z 16003KT 10SM CLR 22/09 A2992 RMK AO2 SLP128 T02220089 52018
KTRM - Thermal/Palm Spg, California, USA
Distance from station: SE 16mi, 26km
Updated: Sat, 27-May-2017 7:52am PDT
Clear
Clear
 Wind from NNW
Wind: NNW 10 mph , 17 km/h
Temperature: 72°F , 22°C
Dew Point: 46°F , 8°C
Humidity: 41%
Barometer: 29.88 inHg , 1011.9 hPa
Clouds: Clear
Visibility: 10 miles , 16 km
2017/05/27 14:52 KTRM 271452Z AUTO 34009KT 10SM CLR 22/08 A2988 RMK AO2 SLP130 T02220083 53020
 
KNXP - Twentynine Palms, California, USA
Distance from station: NNE 37mi, 60km
Updated: Sat, 27-May-2017 7:56am PDT
Clear
Clear
 Wind from N
Wind: N 6 mph , 9 km/h
Temperature: 66°F , 19°C
Dew Point: 36°F , 2°C
Humidity: 32%
Barometer: 30.05 inHg , 1017.6 hPa
Clouds: Clear
Visibility: 10 miles , 16 km
2017/05/27 14:56 KNXP 271456Z 01005KT 10SM CLR 19/02 A3005 RMK AO2 SLP142 T01890017 51018 $
KL35 - Big Bear City, California, USA
Distance from station: NW 43mi, 69km
Updated: Sat, 27-May-2017 8:15am PDT
Clear
Clear
 Wind from calm
Wind: Calm
Temperature: 57°F , 14°C
Dew Point: 14°F , -10°C
Humidity: 18%
Barometer: 30.16 inHg , 1021.3 hPa
Clouds: Clear
Visibility: 10 miles , 16 km
2017/05/27 15:15 KL35 271515Z AUTO 00000KT 10SM CLR 14/M10 A3016 RMK AO2
 
KF70 - Murrieta/Temecula, California, USA
Distance from station: WSW 45mi, 73km
Updated: Sat, 27-May-2017 8:15am PDT
Overcast
Overcast
 Wind from calm
Wind: Calm
Temperature: 59°F , 15°C
Dew Point: 48°F , 9°C
Humidity: 68%
Barometer: 30.05 inHg , 1017.6 hPa
Clouds: Overcast
Visibility: 10 miles , 16 km
Cloud details: Overcast 2900 ft
2017/05/27 15:15 KF70 271515Z AUTO 00000KT 10SM OVC029 15/09 A3005 RMK AO1
KRIV - Riverside/March, California, USA
Distance from station: W 51mi, 82km
Updated: Sat, 27-May-2017 7:58am PDT
Mostly Cloudy
Mostly Cloudy
 Wind from WNW
Wind: WNW 6 mph , 9 km/h
Temperature: 59°F , 15°C
Dew Point: 50°F , 10°C
Humidity: 72%
Barometer: 30.04 inHg , 1017.3 hPa
Clouds: Mostly Cloudy
Visibility: 10 miles , 16 km
Cloud details: Mostly Cloudy 2600 ft
2017/05/27 14:58 KRIV 271458Z AUTO 29005KT 10SM BKN026 15/10 A3004 RMK AO2 SLP167 T01460095 52014
 
KSBD - San Bernardino, California, USA
Distance from station: WNW 54mi, 86km
Updated: Sat, 27-May-2017 7:50am PDT
Haze, Mostly cloudy
Haze, Mostly cloudy
 Wind from SW
Wind: SW 6 mph , 9 km/h
Temperature: 61°F , 16°C
Dew Point: 48°F , 9°C
Humidity: 63%
Barometer: 30.05 inHg , 1017.6 hPa
Summary: Haze
Clouds: Mostly Cloudy
Visibility: 5 miles , 8 km
Cloud details: Mostly Cloudy 5000 ft
2017/05/27 14:50 KSBD 271450Z 22005KT 5SM HZ BKN050 16/09 A3005
KRNM - Ramona, California, USA
Distance from station: SSW 60mi, 96km
Updated: Sat, 27-May-2017 8:20am PDT
Mostly Cloudy
Mostly Cloudy
 Wind from calm
Wind: Calm
Temperature: 61°F , 16°C
Dew Point: 52°F , 11°C
Humidity: 72%
Barometer: 30.05 inHg , 1017.6 hPa
Clouds: Mostly Cloudy
Visibility: 10 miles , 16 km
Cloud details: Mostly Cloudy 2300 ft
2017/05/27 15:20 KRNM 271520Z 00000KT 10SM BKN023 16/11 A3005 RMK AO2 T01610106
 
KRAL - Riverside, California, USA
Distance from station: W 62mi, 100km
Updated: Sat, 27-May-2017 7:53am PDT
Overcast
Overcast
 Wind from WNW
Wind: WNW 5 mph , 7 km/h
Temperature: 59°F , 15°C
Dew Point: 52°F , 11°C
Humidity: 77%
Barometer: 30.05 inHg , 1017.6 hPa
Clouds: Overcast
Visibility: 10 miles , 16 km
Cloud details: Overcast 3200 ft
2017/05/27 14:53 KRAL 271453Z 30004KT 10SM OVC032 15/11 A3005 RMK AO2 SLP162 T01500106 51014
KOKB - Oceanside, California, USA
Distance from station: SW 68mi, 109km
Updated: Sat, 27-May-2017 7:52am PDT
Overcast
Overcast
 Wind from varies
Wind: varies 5 mph , 7 km/h
Temperature: 64°F , 18°C
Dew Point: 55°F , 13°C
Humidity: 73%
Barometer: 30.04 inHg , 1017.3 hPa
Clouds: Overcast
Visibility: 10 miles , 16 km
Cloud details: Overcast 3900 ft
2017/05/27 14:52 KOKB 271452Z AUTO VRB04KT 10SM OVC039 18/13 A3004 RMK AO2 SLP170 T01830133 53013
 
KONT - Ontario, California, USA
Distance from station: WNW 71mi, 114km
Updated: Sat, 27-May-2017 7:53am PDT
Mostly Cloudy
Mostly Cloudy
 Wind from W
Wind: W 5 mph , 7 km/h
Temperature: 61°F , 16°C
Dew Point: 50°F , 10°C
Humidity: 68%
Barometer: 30.04 inHg , 1017.3 hPa
Clouds: Mostly Cloudy
Visibility: 10 miles , 16 km
Cloud details: Mostly Cloudy 3100 ft
2017/05/27 14:53 KONT 271453Z 26004KT 10SM BKN031 16/10 A3004 RMK AO2 SLP166 BKN V OVC T01560100 53013
KNJK - El Centro Naf, California, USA
Distance from station: SSE 78mi, 126km
Updated: Sat, 27-May-2017 7:56am PDT
Clear
Clear
 Wind from calm
Wind: Calm
Temperature: 70°F , 21°C
Dew Point: 45°F , 7°C
Humidity: 40%
Barometer: 29.91 inHg , 1012.9 hPa
Clouds: Clear
Visibility: 10 miles , 16 km
2017/05/27 14:56 KNJK 271456Z 00000KT 10SM CLR 21/07 A2991 RMK AO2 SLP144 T02110072 53020 $
 
KSEE - San Diego/Santee, California, USA
Distance from station: SSW 74mi, 120km
Updated: Sat, 27-May-2017 7:47am PDT
Partly Cloudy
Partly Cloudy
 Wind from calm
Wind: Calm
Temperature: 61°F , 16°C
Dew Point: 54°F , 12°C
Humidity: 77%
Barometer: 30.04 inHg , 1017.3 hPa
Clouds: Partly Cloudy
Visibility: 10 miles , 16 km
Cloud details: Mostly Cloudy 3600 ft
Partly Cloudy 1400 ft
2017/05/27 14:47 KSEE 271447Z 00000KT 10SM BKN036 SCT014 16/12 A3004
KCNO - Chino, California, USA
Distance from station: W 72mi, 116km
Updated: Sat, 27-May-2017 7:53am PDT
Overcast
Overcast
 Wind from W
Wind: W 3 mph , 6 km/h
Temperature: 61°F , 16°C
Dew Point: 52°F , 11°C
Humidity: 72%
Barometer: 30.06 inHg , 1017.9 hPa
Clouds: Overcast
Visibility: 10 miles , 16 km
Cloud details: Overcast 3400 ft
2017/05/27 14:53 KCNO 271453Z 26003KT 10SM OVC034 16/11 A3006 RMK AO2 SLP174 T01560111 51014